createdAt,value
2022-08-05T00:01:49.581Z,89.16
2022-08-05T00:04:18.811Z,89.28
2022-08-05T00:06:51.757Z,89.85
2022-08-05T00:09:20.243Z,89.48
2022-08-05T00:11:55.649Z,89.47
2022-08-05T00:14:27.728Z,89.73
2022-08-05T00:16:57.835Z,89.68
2022-08-05T00:19:33.337Z,89.67
2022-08-05T00:22:11.504Z,89.77
2022-08-05T00:24:42.250Z,89.57
2022-08-05T00:27:16.790Z,89.73
2022-08-05T00:29:45.193Z,89.23
2022-08-05T00:32:15.358Z,89.36
2022-08-05T00:35:04.389Z,89.29
2022-08-05T00:37:53.399Z,89.29
2022-08-05T00:40:28.387Z,89.16
2022-08-05T00:42:59.600Z,89.40
2022-08-05T00:45:43.186Z,89.09
2022-08-05T00:48:31.183Z,89.41
2022-08-05T00:51:00.315Z,89.08
2022-08-05T00:54:00.133Z,89.14
2022-08-05T00:56:25.613Z,89.61
2022-08-05T00:58:53.705Z,89.44
2022-08-05T01:01:24.990Z,89.50
2022-08-05T01:04:13.725Z,89.34
2022-08-05T01:06:43.781Z,89.30
2022-08-05T01:09:17.407Z,89.10
2022-08-05T01:11:52.213Z,89.01
2022-08-05T01:14:31.652Z,89.32
2022-08-05T01:17:11.720Z,89.82
2022-08-05T01:20:00.949Z,89.83
2022-08-05T01:22:49.849Z,90.12
2022-08-05T01:25:57.867Z,90.17
2022-08-05T01:28:52.521Z,90.58
2022-08-05T01:31:53.026Z,90.13
2022-08-05T01:34:26.794Z,90.10
2022-08-05T01:37:24.792Z,89.97
2022-08-05T01:39:59.117Z,89.89
2022-08-05T01:42:29.879Z,90.03
2022-08-05T01:45:03.573Z,90.31
2022-08-05T01:47:43.458Z,88.73
2022-08-05T01:50:35.135Z,88.71
2022-08-05T01:53:10.066Z,88.76
2022-08-05T01:55:42.156Z,88.64
2022-08-05T01:58:15.788Z,88.50
2022-08-05T02:00:51.710Z,88.66
2022-08-05T02:03:37.084Z,87.62
2022-08-05T02:06:33.346Z,87.80
2022-08-05T02:08:59.111Z,86.99
2022-08-05T02:11:47.891Z,87.76
2022-08-05T02:14:40.061Z,86.73
2022-08-05T02:18:30.855Z,87.77
2022-08-05T02:20:23.352Z,87.91
2022-08-05T02:23:01.601Z,87.49
2022-08-05T02:25:49.355Z,87.30
2022-08-05T02:28:29.148Z,86.63
2022-08-05T02:31:14.409Z,88.86
2022-08-05T02:33:57.460Z,86.57
2022-08-05T02:36:31.908Z,86.85
2022-08-05T02:39:04.169Z,87.08
2022-08-05T02:41:57.503Z,86.87
2022-08-05T02:44:31.872Z,88.49
2022-08-05T02:47:01.277Z,88.01
2022-08-05T02:49:42.292Z,88.15
2022-08-05T02:52:30.064Z,88.01
2022-08-05T02:55:01.783Z,88.84
2022-08-05T02:58:20.022Z,88.60
2022-08-05T03:00:23.089Z,89.52
2022-08-05T03:02:57.924Z,89.47
2022-08-05T03:06:57.086Z,89.67
2022-08-05T03:08:16.976Z,89.42
2022-08-05T03:11:53.272Z,89.60
2022-08-05T03:13:51.928Z,90.05
2022-08-05T03:16:35.992Z,90.23
2022-08-05T03:19:12.709Z,90.30
2022-08-05T03:21:48.939Z,90.49
2022-08-05T03:24:31.701Z,90.16
2022-08-05T03:27:02.188Z,90.53
2022-08-05T03:29:45.185Z,89.80
2022-08-05T03:32:31.017Z,89.66
2022-08-05T03:35:00.763Z,89.85
2022-08-05T03:37:30.913Z,90.10
2022-08-05T03:40:24.391Z,90.39
2022-08-05T03:43:01.439Z,90.23
2022-08-05T03:45:57.110Z,90.64
2022-08-05T03:48:28.930Z,90.60
2022-08-05T03:52:37.527Z,90.67
2022-08-05T03:56:00.760Z,90.71
2022-08-05T03:56:53.463Z,90.64
2022-08-05T03:59:47.639Z,90.81
2022-08-05T04:02:38.390Z,90.39
2022-08-05T04:05:10.290Z,90.71
2022-08-05T04:07:57.416Z,90.94
2022-08-05T04:10:37.177Z,90.80
2022-08-05T04:13:07.915Z,90.99
2022-08-05T04:15:37.917Z,90.75
2022-08-05T04:18:25.532Z,90.76
2022-08-05T04:20:58.025Z,90.81
2022-08-05T04:24:01.099Z,90.59
2022-08-05T04:26:17.703Z,90.79
2022-08-05T04:28:51.380Z,90.58
2022-08-05T04:31:20.739Z,90.53
2022-08-05T04:34:18.609Z,90.62
2022-08-05T04:36:44.710Z,90.87
2022-08-05T04:39:14.681Z,90.79
2022-08-05T04:41:42.527Z,90.81
2022-08-05T04:44:12.485Z,90.83
2022-08-05T04:46:40.800Z,90.63
2022-08-05T04:49:16.458Z,90.63
2022-08-05T04:51:44.631Z,90.55
2022-08-05T04:54:14.817Z,90.37
2022-08-05T04:56:44.513Z,90.08
2022-08-05T04:59:26.686Z,89.64
2022-08-05T05:02:07.456Z,89.52
2022-08-05T05:04:51.646Z,89.54
2022-08-05T05:07:29.334Z,89.58
2022-08-05T05:10:04.278Z,89.80
2022-08-05T05:12:32.913Z,89.63
2022-08-05T05:15:03.844Z,89.52
2022-08-05T05:17:55.688Z,86.00
2022-08-05T05:20:28.662Z,83.64
2022-08-05T05:23:08.389Z,80.43
2022-08-05T05:25:49.397Z,79.57
2022-08-05T05:28:19.922Z,78.86
2022-08-05T05:30:49.694Z,77.30
2022-08-05T05:33:23.289Z,76.93
2022-08-05T05:35:51.888Z,75.83
2022-08-05T05:38:22.635Z,74.91
2022-08-05T05:40:57.275Z,75.74
2022-08-05T05:43:54.384Z,75.23
2022-08-05T05:46:15.957Z,74.29
2022-08-05T05:48:46.307Z,75.01
2022-08-05T05:51:21.423Z,74.90
2022-08-05T05:53:57.997Z,73.76
2022-08-05T05:56:34.127Z,75.19
2022-08-05T05:59:07.711Z,76.24
2022-08-05T06:01:40.989Z,76.55
2022-08-05T06:04:25.720Z,76.67
2022-08-05T06:06:53.701Z,75.39
2022-08-05T06:09:35.347Z,75.00
2022-08-05T06:12:09.852Z,75.50
2022-08-05T06:14:40.392Z,75.98
2022-08-05T06:17:21.945Z,75.59
2022-08-05T06:19:56.588Z,76.55
2022-08-05T06:22:30.253Z,75.77
2022-08-05T06:25:59.642Z,75.11
2022-08-05T06:28:11.645Z,74.58
2022-08-05T06:30:42.247Z,75.05
2022-08-05T06:33:10.792Z,79.00
2022-08-05T06:36:03.715Z,81.13
2022-08-05T06:38:35.854Z,82.51
2022-08-05T06:41:07.803Z,83.18
2022-08-05T06:43:51.753Z,83.74
2022-08-05T06:46:29.805Z,84.46
2022-08-05T06:49:01.093Z,82.10
2022-08-05T06:51:31.347Z,81.98
2022-08-05T06:54:01.922Z,81.30
2022-08-05T06:56:34.658Z,81.14
2022-08-05T06:59:09.815Z,81.62
2022-08-05T07:01:40.769Z,81.93
2022-08-05T07:04:10.809Z,82.42
2022-08-05T07:06:42.194Z,82.56
2022-08-05T07:09:10.161Z,82.43
2022-08-05T07:11:39.713Z,82.06
2022-08-05T07:14:29.321Z,82.04
2022-08-05T07:17:58.540Z,80.55
2022-08-05T07:20:32.293Z,80.40
2022-08-05T07:22:39.197Z,80.72
2022-08-05T07:25:22.181Z,79.79
2022-08-05T07:28:03.760Z,79.76
2022-08-05T07:30:40.093Z,79.98
2022-08-05T07:33:17.112Z,78.57
2022-08-05T07:36:04.203Z,77.68
2022-08-05T07:38:43.195Z,76.21
2022-08-05T07:42:07.780Z,75.94
2022-08-05T07:44:18.660Z,74.84
2022-08-05T07:46:49.673Z,74.18
2022-08-05T07:49:18.891Z,71.58
2022-08-05T07:51:53.200Z,72.19
2022-08-05T07:54:33.436Z,71.87
2022-08-05T07:57:16.854Z,70.29
2022-08-05T07:59:51.857Z,71.08
2022-08-05T08:02:31.146Z,69.22
2022-08-05T08:05:18.010Z,64.95
2022-08-05T08:07:59.713Z,65.33
2022-08-05T08:10:29.387Z,61.59
2022-08-05T08:12:59.223Z,58.97
2022-08-05T08:16:33.305Z,56.92
2022-08-05T08:18:20.952Z,57.58
2022-08-05T08:21:01.827Z,59.51
2022-08-05T08:24:01.006Z,59.94
2022-08-05T08:26:29.560Z,58.15
2022-08-05T08:29:21.521Z,58.98
2022-08-05T08:31:48.362Z,61.07
2022-08-05T08:34:18.677Z,61.81
2022-08-05T08:36:54.698Z,62.49
2022-08-05T08:39:24.753Z,62.22
2022-08-05T08:41:59.863Z,59.92
2022-08-05T08:45:19.740Z,59.55
2022-08-05T08:48:05.785Z,57.30
2022-08-05T08:50:30.936Z,57.32
2022-08-05T08:53:07.870Z,57.89
2022-08-05T08:56:03.479Z,55.41
2022-08-05T08:58:43.454Z,55.35
2022-08-05T09:01:17.466Z,55.86
2022-08-05T09:03:55.194Z,57.36
2022-08-05T09:06:29.509Z,58.03
2022-08-05T09:09:00.007Z,58.65
2022-08-05T09:11:52.552Z,56.53
2022-08-05T09:14:59.037Z,55.76
2022-08-05T09:17:16.138Z,55.62
2022-08-05T09:20:02.943Z,55.27
2022-08-05T09:23:09.301Z,55.90
2022-08-05T09:26:02.416Z,55.40
2022-08-05T09:28:32.500Z,54.95
2022-08-05T09:31:22.440Z,53.65
2022-08-05T09:34:00.268Z,53.14
2022-08-05T09:36:59.174Z,51.60
2022-08-05T09:39:45.156Z,49.83
2022-08-05T09:42:28.242Z,50.16
2022-08-05T09:45:17.176Z,50.55
2022-08-05T09:47:55.197Z,47.67
2022-08-05T09:50:44.428Z,49.56
2022-08-05T09:53:23.103Z,48.92
2022-08-05T09:56:12.738Z,46.61
2022-08-05T09:58:41.894Z,44.37
2022-08-05T10:01:14.942Z,44.96
2022-08-05T10:04:00.962Z,44.10
2022-08-05T10:06:29.053Z,44.94
2022-08-05T10:09:27.736Z,45.58
2022-08-05T10:12:30.969Z,46.85
2022-08-05T10:15:20.643Z,43.49
2022-08-05T10:18:06.393Z,42.95
2022-08-05T10:20:40.299Z,43.03
2022-08-05T10:23:34.691Z,43.92
2022-08-05T10:26:04.629Z,42.18
2022-08-05T10:28:38.600Z,41.70
2022-08-05T10:32:49.009Z,42.17
2022-08-05T10:33:55.432Z,41.05
2022-08-05T10:36:25.861Z,39.65
2022-08-05T10:39:10.211Z,38.43
2022-08-05T10:42:07.748Z,39.21
2022-08-05T10:44:43.677Z,38.86
2022-08-05T10:47:26.708Z,37.94
2022-08-05T10:50:31.834Z,38.12
2022-08-05T10:53:01.669Z,38.78
2022-08-05T10:55:32.938Z,39.53
2022-08-05T10:58:20.620Z,39.49
2022-08-05T11:00:55.359Z,39.22
2022-08-05T11:03:31.204Z,38.30
2022-08-05T11:06:14.566Z,38.28
2022-08-05T11:09:16.673Z,37.99
2022-08-05T11:11:53.661Z,39.31
2022-08-05T11:14:57.502Z,39.06
2022-08-05T11:17:58.000Z,39.67
2022-08-05T11:20:45.492Z,39.43
2022-08-05T11:24:04.417Z,39.50
2022-08-05T11:26:35.893Z,38.59
2022-08-05T11:29:12.984Z,38.82
2022-08-05T11:31:58.419Z,39.35
2022-08-05T11:34:51.393Z,38.99
2022-08-05T11:38:30.913Z,37.87
2022-08-05T11:41:03.663Z,37.97
2022-08-05T11:44:06.656Z,37.69
2022-08-05T11:47:09.380Z,37.12
2022-08-05T11:49:39.652Z,37.09
2022-08-05T11:52:11.634Z,38.31
2022-08-05T11:54:41.602Z,37.97
2022-08-05T11:57:24.772Z,37.51
2022-08-05T11:59:54.634Z,37.74
2022-08-05T12:02:30.952Z,39.12
2022-08-05T12:05:06.805Z,39.43
2022-08-05T12:08:08.620Z,39.21
2022-08-05T12:10:43.482Z,40.81
2022-08-05T12:13:17.214Z,40.60
2022-08-05T12:15:58.159Z,39.55
2022-08-05T12:18:52.137Z,39.84
2022-08-05T12:21:31.946Z,39.48
2022-08-05T12:24:11.401Z,40.03
2022-08-05T12:26:44.608Z,40.29
2022-08-05T12:29:22.622Z,40.23
2022-08-05T12:31:57.605Z,40.34
2022-08-05T12:34:32.490Z,41.47
2022-08-05T12:37:10.968Z,41.51
2022-08-05T12:39:51.625Z,43.04
2022-08-05T12:42:21.448Z,42.84
2022-08-05T12:45:01.090Z,42.56
2022-08-05T12:47:31.090Z,43.19
2022-08-05T12:50:03.753Z,42.84
2022-08-05T12:52:38.848Z,43.37
2022-08-05T12:55:25.477Z,44.61
2022-08-05T12:58:49.558Z,45.44
2022-08-05T13:02:00.630Z,44.01
2022-08-05T13:03:41.941Z,44.52
2022-08-05T13:06:17.858Z,42.96
2022-08-05T13:08:52.333Z,42.25
2022-08-05T13:12:01.872Z,42.96
2022-08-05T13:14:24.902Z,46.08
2022-08-05T13:17:11.569Z,49.05
2022-08-05T13:19:51.964Z,48.10
2022-08-05T13:22:28.105Z,46.76
2022-08-05T13:25:05.795Z,45.60
2022-08-05T13:27:40.434Z,45.76
2022-08-05T13:30:35.656Z,45.93
2022-08-05T13:33:01.423Z,44.61
2022-08-05T13:35:50.449Z,44.68
2022-08-05T13:38:30.859Z,44.59
2022-08-05T13:41:02.077Z,44.72
2022-08-05T13:43:44.189Z,44.03
2022-08-05T13:46:14.447Z,44.96
2022-08-05T13:48:58.359Z,45.54
2022-08-05T13:51:36.362Z,44.44
2022-08-05T13:54:12.352Z,44.10
2022-08-05T13:56:45.218Z,43.48
2022-08-05T13:59:24.498Z,43.90
2022-08-05T14:02:00.166Z,45.33
2022-08-05T14:04:54.848Z,46.76
2022-08-05T14:07:59.871Z,47.67
2022-08-05T14:10:18.798Z,48.07
2022-08-05T14:12:48.725Z,46.76
2022-08-05T14:16:09.128Z,44.90
2022-08-05T14:18:06.409Z,44.92
2022-08-05T14:20:43.349Z,46.30
2022-08-05T14:23:25.222Z,47.33
2022-08-05T14:25:59.711Z,47.59
2022-08-05T14:28:29.723Z,48.09
2022-08-05T14:31:00.501Z,47.71
2022-08-05T14:33:56.811Z,47.63
2022-08-05T14:36:21.368Z,45.70
2022-08-05T14:38:50.802Z,47.60
2022-08-05T14:41:19.228Z,46.70
2022-08-05T14:43:59.324Z,47.20
2022-08-05T14:46:37.219Z,47.44
2022-08-05T14:49:08.051Z,46.94
2022-08-05T14:51:42.547Z,47.55
2022-08-05T14:54:30.132Z,47.14
2022-08-05T14:57:05.142Z,47.50
2022-08-05T14:59:35.349Z,46.80
2022-08-05T15:02:14.903Z,47.57
2022-08-05T15:04:44.821Z,46.64
2022-08-05T15:08:11.445Z,46.20
2022-08-05T15:10:03.201Z,45.26
2022-08-05T15:12:45.775Z,46.26
2022-08-05T15:15:54.152Z,46.08
2022-08-05T15:18:09.137Z,46.14
2022-08-05T15:20:39.928Z,46.88
2022-08-05T15:23:11.787Z,47.41
2022-08-05T15:25:51.316Z,47.99
2022-08-05T15:28:27.107Z,50.03
2022-08-05T15:30:56.600Z,51.21
2022-08-05T15:34:04.643Z,54.98
2022-08-05T15:36:17.469Z,56.79
2022-08-05T15:41:00.281Z,57.04
2022-08-05T15:41:58.513Z,57.15
2022-08-05T15:44:30.427Z,57.49
2022-08-05T15:47:01.489Z,57.76
2022-08-05T15:49:40.962Z,58.33
2022-08-05T15:52:52.275Z,58.63
2022-08-05T15:55:10.300Z,57.98
2022-08-05T15:57:43.791Z,57.50
2022-08-05T16:00:16.901Z,57.50
2022-08-05T16:02:54.792Z,57.95
2022-08-05T16:05:28.378Z,57.74
2022-08-05T16:07:57.628Z,56.71
2022-08-05T16:10:26.947Z,57.28
2022-08-05T16:12:56.261Z,57.61
2022-08-05T16:15:24.711Z,57.69
2022-08-05T16:18:04.106Z,57.74
2022-08-05T16:20:36.945Z,58.12
2022-08-05T16:23:08.673Z,56.68
2022-08-05T16:25:37.784Z,55.17
2022-08-05T16:28:10.247Z,54.79
2022-08-05T16:30:38.974Z,55.07
2022-08-05T16:33:09.643Z,55.90
2022-08-05T16:35:42.466Z,55.82
2022-08-05T16:38:18.662Z,55.50
2022-08-05T16:41:00.219Z,53.43
2022-08-05T16:43:32.059Z,52.79
2022-08-05T16:46:23.961Z,52.10
2022-08-05T16:48:49.819Z,53.61
2022-08-05T16:51:19.713Z,54.21
2022-08-05T16:54:02.438Z,54.61
2022-08-05T16:56:36.263Z,54.41
2022-08-05T16:59:15.734Z,53.75
2022-08-05T17:01:53.802Z,53.75
2022-08-05T17:04:29.625Z,53.77
2022-08-05T17:07:03.614Z,53.93
2022-08-05T17:09:58.497Z,53.16
2022-08-05T17:12:51.882Z,51.66
2022-08-05T17:15:19.506Z,52.98
2022-08-05T17:18:02.128Z,53.44
2022-08-05T17:20:36.411Z,53.64
2022-08-05T17:24:03.113Z,53.26
2022-08-05T17:26:14.259Z,53.94
2022-08-05T17:28:51.129Z,54.12
2022-08-05T17:31:24.644Z,54.78
2022-08-05T17:34:12.257Z,54.61
2022-08-05T17:36:46.573Z,54.02
2022-08-05T17:39:24.194Z,54.54
2022-08-05T17:42:18.348Z,53.86
2022-08-05T17:44:55.637Z,54.51
2022-08-05T17:47:23.835Z,54.62
2022-08-05T17:50:03.720Z,53.90
2022-08-05T17:52:35.000Z,54.15
2022-08-05T17:55:27.281Z,54.02
2022-08-05T17:58:09.357Z,53.93
2022-08-05T18:00:51.154Z,54.47
2022-08-05T18:03:56.149Z,54.83
2022-08-05T18:06:15.589Z,53.83
2022-08-05T18:08:52.321Z,53.91
2022-08-05T18:11:32.576Z,54.08
2022-08-05T18:14:20.599Z,55.01
2022-08-05T18:20:16.048Z,56.35
2022-08-05T18:22:54.455Z,56.87
2022-08-05T18:25:32.744Z,57.23
2022-08-05T18:28:16.528Z,57.56
2022-08-05T18:30:53.570Z,57.66
2022-08-05T18:33:37.557Z,57.62
2022-08-05T18:36:20.885Z,58.35
2022-08-05T18:39:02.440Z,58.28
2022-08-05T18:41:56.591Z,58.53
2022-08-05T18:44:33.233Z,59.13
2022-08-05T18:47:05.074Z,59.06
2022-08-05T18:50:00.167Z,58.99
2022-08-05T18:52:35.568Z,58.77
2022-08-05T18:55:13.653Z,58.96
2022-08-05T18:57:52.634Z,59.20
2022-08-05T19:00:30.020Z,59.76
2022-08-05T19:03:09.498Z,60.09
2022-08-05T19:06:12.763Z,60.40
2022-08-05T19:08:42.533Z,60.61
2022-08-05T19:11:14.883Z,60.81
2022-08-05T19:13:47.895Z,60.83
2022-08-05T19:16:29.427Z,61.29
2022-08-05T19:19:08.808Z,60.75
2022-08-05T19:21:43.684Z,60.92
2022-08-05T19:24:16.491Z,61.13
2022-08-05T19:27:09.309Z,61.52
2022-08-05T19:29:44.115Z,61.64
2022-08-05T19:32:17.878Z,61.95
2022-08-05T19:37:34.902Z,62.73
2022-08-05T19:40:31.014Z,63.15
2022-08-05T19:44:03.971Z,63.32
2022-08-05T19:45:56.202Z,63.96
2022-08-05T19:48:27.307Z,64.12
2022-08-05T19:50:59.850Z,64.46
2022-08-05T19:54:04.288Z,64.69
2022-08-05T19:56:48.533Z,65.08
2022-08-05T19:59:55.368Z,65.31
2022-08-05T20:02:24.652Z,65.38
2022-08-05T20:05:04.692Z,65.85
2022-08-05T20:07:46.988Z,66.26
2022-08-05T20:10:26.861Z,66.57
2022-08-05T20:12:58.065Z,66.87
2022-08-05T20:15:52.158Z,66.75
2022-08-05T20:18:33.968Z,67.16
2022-08-05T20:21:07.092Z,67.29
2022-08-05T20:23:53.178Z,67.66
2022-08-05T20:26:24.789Z,67.57
2022-08-05T20:29:06.647Z,67.54
2022-08-05T20:31:58.001Z,67.87
2022-08-05T20:34:26.825Z,67.84
2022-08-05T20:37:04.824Z,68.00
2022-08-05T20:39:51.563Z,68.36
2022-08-05T20:42:21.931Z,68.68
2022-08-05T20:44:50.205Z,69.02
2022-08-05T20:47:32.743Z,69.01
2022-08-05T20:50:02.504Z,69.19
2022-08-05T20:52:37.783Z,69.34
2022-08-05T20:55:56.117Z,69.62
2022-08-05T21:01:54.083Z,70.11
2022-08-05T21:05:38.036Z,70.28
2022-08-05T21:07:55.269Z,70.73
2022-08-05T21:10:24.948Z,71.06
2022-08-05T21:13:48.452Z,71.25
2022-08-05T21:16:11.580Z,71.78
2022-08-05T21:18:49.446Z,72.30
2022-08-05T21:21:20.736Z,72.58
2022-08-05T21:23:54.728Z,73.01
2022-08-05T21:26:22.874Z,73.28
2022-08-05T21:29:03.830Z,73.46
2022-08-05T21:31:41.152Z,73.67
2022-08-05T21:34:20.565Z,74.07
2022-08-05T21:36:52.523Z,74.20
2022-08-05T21:39:26.907Z,74.47
2022-08-05T21:42:01.618Z,74.66
2022-08-05T21:44:31.693Z,75.00
2022-08-05T21:47:32.816Z,75.00
2022-08-05T21:50:01.394Z,75.12
2022-08-05T21:52:30.616Z,75.15
2022-08-05T21:55:11.948Z,75.23
2022-08-05T21:57:42.570Z,75.61
2022-08-05T22:00:12.795Z,75.83
2022-08-05T22:02:44.037Z,75.91
2022-08-05T22:05:15.878Z,75.99
2022-08-05T22:07:58.771Z,76.28
2022-08-05T22:10:32.239Z,76.26
2022-08-05T22:14:04.844Z,76.36
2022-08-05T22:16:00.815Z,76.55
2022-08-05T22:18:41.481Z,76.54
2022-08-05T22:21:18.860Z,76.57
2022-08-05T22:24:12.911Z,76.58
2022-08-05T22:27:16.678Z,76.85
2022-08-05T22:29:54.303Z,76.69
2022-08-05T22:32:22.899Z,76.78
2022-08-05T22:34:55.157Z,76.57
2022-08-05T22:37:25.972Z,76.55
2022-08-05T22:40:20.521Z,76.62
2022-08-05T22:42:53.254Z,76.78
2022-08-05T22:45:26.540Z,76.85
2022-08-05T22:47:58.325Z,76.88
2022-08-05T22:50:27.829Z,77.18
2022-08-05T22:52:57.516Z,77.31
2022-08-05T22:55:37.297Z,77.39
2022-08-05T22:58:28.234Z,77.54
2022-08-05T23:00:57.242Z,77.88
2022-08-05T23:03:58.709Z,78.13
2022-08-05T23:06:13.860Z,78.30
2022-08-05T23:08:46.860Z,78.42
2022-08-05T23:11:22.268Z,78.48
2022-08-05T23:13:51.784Z,78.59
2022-08-05T23:16:39.884Z,78.79
2022-08-05T23:19:23.802Z,79.17
2022-08-05T23:21:54.111Z,79.28
2022-08-05T23:24:22.216Z,79.30
2022-08-05T23:26:50.593Z,79.56
2022-08-05T23:29:19.449Z,79.63
2022-08-05T23:31:47.724Z,79.78
2022-08-05T23:34:24.592Z,79.86
2022-08-05T23:36:53.150Z,79.92
2022-08-05T23:39:31.955Z,79.82
2022-08-05T23:42:14.294Z,79.85
2022-08-05T23:44:42.972Z,79.89
2022-08-05T23:47:14.431Z,79.87
2022-08-05T23:49:45.745Z,80.21
2022-08-05T23:52:52.102Z,80.25
2022-08-05T23:55:21.904Z,80.27
2022-08-05T23:57:52.972Z,80.26
